sensor_id;sensor_type;location;lat;lon;timestamp;P1;durP1;ratioP1;P2;durP2;ratioP2
47896;SDS011;39629;51.400;5.494;2023-08-24T00:02:02;5.28;;;2.50;;
47896;SDS011;39629;51.400;5.494;2023-08-24T00:07:05;5.25;;;2.35;;
47896;SDS011;39629;51.400;5.494;2023-08-24T00:12:08;5.63;;;2.60;;
47896;SDS011;39629;51.400;5.494;2023-08-24T00:17:10;6.55;;;2.72;;
47896;SDS011;39629;51.400;5.494;2023-08-24T00:22:13;4.90;;;2.47;;
47896;SDS011;39629;51.400;5.494;2023-08-24T00:27:15;4.88;;;2.15;;
47896;SDS011;39629;51.400;5.494;2023-08-24T00:32:16;5.20;;;2.60;;
47896;SDS011;39629;51.400;5.494;2023-08-24T00:37:19;3.45;;;1.80;;
47896;SDS011;39629;51.400;5.494;2023-08-24T00:42:21;4.27;;;2.47;;
47896;SDS011;39629;51.400;5.494;2023-08-24T00:47:23;5.82;;;2.85;;
47896;SDS011;39629;51.400;5.494;2023-08-24T00:52:26;5.28;;;2.33;;
47896;SDS011;39629;51.400;5.494;2023-08-24T00:57:30;6.43;;;2.58;;
47896;SDS011;39629;51.400;5.494;2023-08-24T01:02:34;6.90;;;3.30;;
47896;SDS011;39629;51.400;5.494;2023-08-24T01:07:38;7.50;;;2.92;;
47896;SDS011;39629;51.400;5.494;2023-08-24T01:12:46;6.00;;;3.10;;
47896;SDS011;39629;51.400;5.494;2023-08-24T01:17:59;6.45;;;3.53;;
47896;SDS011;39629;51.400;5.494;2023-08-24T01:23:09;5.50;;;3.25;;
47896;SDS011;39629;51.400;5.494;2023-08-24T01:28:21;6.22;;;2.75;;
47896;SDS011;39629;51.400;5.494;2023-08-24T01:33:24;6.38;;;3.25;;
47896;SDS011;39629;51.400;5.494;2023-08-24T01:38:27;6.38;;;3.20;;
47896;SDS011;39629;51.400;5.494;2023-08-24T01:43:32;5.25;;;2.92;;
47896;SDS011;39629;51.400;5.494;2023-08-24T01:48:36;5.10;;;2.78;;
47896;SDS011;39629;51.400;5.494;2023-08-24T01:53:38;5.80;;;3.33;;
47896;SDS011;39629;51.400;5.494;2023-08-24T01:58:42;5.28;;;2.45;;
47896;SDS011;39629;51.400;5.494;2023-08-24T02:03:43;5.72;;;3.40;;
47896;SDS011;39629;51.400;5.494;2023-08-24T02:08:45;5.88;;;2.78;;
47896;SDS011;39629;51.400;5.494;2023-08-24T02:13:48;5.20;;;3.13;;
47896;SDS011;39629;51.400;5.494;2023-08-24T02:18:50;6.95;;;3.30;;
47896;SDS011;39629;51.400;5.494;2023-08-24T02:23:52;6.75;;;3.60;;
47896;SDS011;39629;51.400;5.494;2023-08-24T02:28:55;8.18;;;3.67;;
47896;SDS011;39629;51.400;5.494;2023-08-24T02:33:58;7.22;;;2.80;;
47896;SDS011;39629;51.400;5.494;2023-08-24T02:39:00;7.35;;;3.92;;
47896;SDS011;39629;51.400;5.494;2023-08-24T02:44:03;5.63;;;3.38;;
47896;SDS011;39629;51.400;5.494;2023-08-24T02:49:05;4.73;;;3.10;;
47896;SDS011;39629;51.400;5.494;2023-08-24T02:54:07;4.10;;;2.50;;
47896;SDS011;39629;51.400;5.494;2023-08-24T02:59:09;6.57;;;3.35;;
47896;SDS011;39629;51.400;5.494;2023-08-24T03:04:11;6.68;;;3.65;;
47896;SDS011;39629;51.400;5.494;2023-08-24T03:09:12;5.78;;;3.38;;
47896;SDS011;39629;51.400;5.494;2023-08-24T03:14:16;9.88;;;3.78;;
47896;SDS011;39629;51.400;5.494;2023-08-24T03:19:19;7.00;;;3.28;;
47896;SDS011;39629;51.400;5.494;2023-08-24T03:24:20;7.43;;;4.38;;
47896;SDS011;39629;51.400;5.494;2023-08-24T03:29:23;5.55;;;3.53;;
47896;SDS011;39629;51.400;5.494;2023-08-24T03:34:25;12.07;;;4.38;;
47896;SDS011;39629;51.400;5.494;2023-08-24T03:39:27;9.80;;;4.93;;
47896;SDS011;39629;51.400;5.494;2023-08-24T03:44:31;8.98;;;4.70;;
47896;SDS011;39629;51.400;5.494;2023-08-24T03:49:32;7.32;;;4.57;;
47896;SDS011;39629;51.400;5.494;2023-08-24T03:54:34;11.63;;;6.03;;
47896;SDS011;39629;51.400;5.494;2023-08-24T03:59:37;8.63;;;5.30;;
47896;SDS011;39629;51.400;5.494;2023-08-24T04:04:39;12.98;;;6.82;;
47896;SDS011;39629;51.400;5.494;2023-08-24T04:09:41;11.57;;;6.55;;
47896;SDS011;39629;51.400;5.494;2023-08-24T04:14:43;15.20;;;6.78;;
47896;SDS011;39629;51.400;5.494;2023-08-24T04:19:45;10.15;;;6.20;;
47896;SDS011;39629;51.400;5.494;2023-08-24T04:24:47;17.73;;;8.95;;
47896;SDS011;39629;51.400;5.494;2023-08-24T04:29:50;12.10;;;6.82;;
47896;SDS011;39629;51.400;5.494;2023-08-24T04:34:51;13.60;;;8.45;;
47896;SDS011;39629;51.400;5.494;2023-08-24T04:39:53;13.88;;;8.48;;
47896;SDS011;39629;51.400;5.494;2023-08-24T04:44:56;13.18;;;7.55;;
47896;SDS011;39629;51.400;5.494;2023-08-24T04:49:58;12.93;;;7.85;;
47896;SDS011;39629;51.400;5.494;2023-08-24T04:54:59;15.45;;;7.82;;
47896;SDS011;39629;51.400;5.494;2023-08-24T05:00:03;15.32;;;7.43;;
47896;SDS011;39629;51.400;5.494;2023-08-24T05:05:07;14.35;;;7.80;;
47896;SDS011;39629;51.400;5.494;2023-08-24T05:10:10;15.07;;;8.40;;
47896;SDS011;39629;51.400;5.494;2023-08-24T05:15:13;17.63;;;8.05;;
47896;SDS011;39629;51.400;5.494;2023-08-24T05:20:15;11.77;;;7.72;;
47896;SDS011;39629;51.400;5.494;2023-08-24T05:25:16;12.07;;;6.97;;
47896;SDS011;39629;51.400;5.494;2023-08-24T05:30:20;11.90;;;7.38;;
47896;SDS011;39629;51.400;5.494;2023-08-24T05:35:22;13.15;;;7.50;;
47896;SDS011;39629;51.400;5.494;2023-08-24T05:40:23;14.00;;;7.68;;
47896;SDS011;39629;51.400;5.494;2023-08-24T05:45:26;12.98;;;6.40;;
47896;SDS011;39629;51.400;5.494;2023-08-24T05:50:28;9.27;;;6.25;;
47896;SDS011;39629;51.400;5.494;2023-08-24T05:55:29;12.00;;;6.85;;
47896;SDS011;39629;51.400;5.494;2023-08-24T06:00:32;13.73;;;8.43;;
47896;SDS011;39629;51.400;5.494;2023-08-24T06:05:34;16.88;;;10.02;;
47896;SDS011;39629;51.400;5.494;2023-08-24T06:10:37;16.20;;;8.63;;
47896;SDS011;39629;51.400;5.494;2023-08-24T06:15:40;12.43;;;5.72;;
47896;SDS011;39629;51.400;5.494;2023-08-24T06:20:41;14.60;;;7.45;;
47896;SDS011;39629;51.400;5.494;2023-08-24T06:25:43;11.45;;;6.35;;
47896;SDS011;39629;51.400;5.494;2023-08-24T06:30:46;9.80;;;6.15;;
47896;SDS011;39629;51.400;5.494;2023-08-24T06:35:48;12.60;;;7.03;;
47896;SDS011;39629;51.400;5.494;2023-08-24T06:40:49;12.38;;;6.63;;
47896;SDS011;39629;51.400;5.494;2023-08-24T06:45:53;13.90;;;7.25;;
47896;SDS011;39629;51.400;5.494;2023-08-24T06:50:55;15.05;;;7.50;;
47896;SDS011;39629;51.400;5.494;2023-08-24T06:55:57;15.90;;;7.30;;
47896;SDS011;39629;51.400;5.494;2023-08-24T07:01:00;12.77;;;6.88;;
47896;SDS011;39629;51.400;5.494;2023-08-24T07:06:06;14.10;;;6.88;;
47896;SDS011;39629;51.400;5.494;2023-08-24T07:11:08;10.40;;;5.95;;
47896;SDS011;39629;51.400;5.494;2023-08-24T07:16:11;11.98;;;6.05;;
47896;SDS011;39629;51.400;5.494;2023-08-24T07:21:12;11.73;;;6.47;;
47896;SDS011;39629;51.400;5.494;2023-08-24T07:26:14;8.43;;;5.60;;
47896;SDS011;39629;51.400;5.494;2023-08-24T07:31:17;8.77;;;4.90;;
47896;SDS011;39629;51.400;5.494;2023-08-24T07:36:19;9.30;;;5.73;;
47896;SDS011;39629;51.400;5.494;2023-08-24T07:41:21;10.55;;;5.60;;
47896;SDS011;39629;51.400;5.494;2023-08-24T07:46:24;8.30;;;4.60;;
47896;SDS011;39629;51.400;5.494;2023-08-24T07:51:25;11.53;;;4.80;;
47896;SDS011;39629;51.400;5.494;2023-08-24T07:56:28;9.27;;;4.78;;
47896;SDS011;39629;51.400;5.494;2023-08-24T08:01:31;9.40;;;4.35;;
47896;SDS011;39629;51.400;5.494;2023-08-24T08:06:33;9.90;;;4.70;;
47896;SDS011;39629;51.400;5.494;2023-08-24T08:11:34;8.57;;;4.40;;
47896;SDS011;39629;51.400;5.494;2023-08-24T08:16:37;8.60;;;4.68;;
47896;SDS011;39629;51.400;5.494;2023-08-24T08:21:39;8.70;;;3.90;;
47896;SDS011;39629;51.400;5.494;2023-08-24T08:26:40;7.65;;;4.05;;
47896;SDS011;39629;51.400;5.494;2023-08-24T08:31:43;8.52;;;4.30;;
47896;SDS011;39629;51.400;5.494;2023-08-24T08:36:45;9.05;;;4.20;;
47896;SDS011;39629;51.400;5.494;2023-08-24T08:41:46;8.15;;;4.43;;
47896;SDS011;39629;51.400;5.494;2023-08-24T08:46:50;11.23;;;4.70;;
47896;SDS011;39629;51.400;5.494;2023-08-24T08:56:53;6.88;;;3.67;;
47896;SDS011;39629;51.400;5.494;2023-08-24T09:01:57;7.35;;;3.88;;
47896;SDS011;39629;51.400;5.494;2023-08-24T09:07:00;6.53;;;3.30;;
47896;SDS011;39629;51.400;5.494;2023-08-24T09:12:08;6.30;;;3.03;;
47896;SDS011;39629;51.400;5.494;2023-08-24T09:17:11;8.07;;;3.50;;
47896;SDS011;39629;51.400;5.494;2023-08-24T09:22:20;6.55;;;3.00;;
47896;SDS011;39629;51.400;5.494;2023-08-24T09:27:22;5.25;;;3.00;;
47896;SDS011;39629;51.400;5.494;2023-08-24T09:32:27;6.05;;;2.90;;
47896;SDS011;39629;51.400;5.494;2023-08-24T09:37:31;5.03;;;2.95;;
47896;SDS011;39629;51.400;5.494;2023-08-24T09:42:40;6.32;;;2.67;;
47896;SDS011;39629;51.400;5.494;2023-08-24T09:47:48;5.25;;;2.70;;
47896;SDS011;39629;51.400;5.494;2023-08-24T09:52:51;5.43;;;2.97;;
47896;SDS011;39629;51.400;5.494;2023-08-24T09:57:55;8.02;;;3.05;;
47896;SDS011;39629;51.400;5.494;2023-08-24T10:03:01;3.97;;;2.60;;
47896;SDS011;39629;51.400;5.494;2023-08-24T10:08:05;7.72;;;3.08;;
47896;SDS011;39629;51.400;5.494;2023-08-24T10:13:10;6.63;;;3.30;;
47896;SDS011;39629;51.400;5.494;2023-08-24T10:18:20;5.32;;;2.83;;
47896;SDS011;39629;51.400;5.494;2023-08-24T10:23:23;7.22;;;3.53;;
47896;SDS011;39629;51.400;5.494;2023-08-24T10:28:26;7.50;;;2.85;;
47896;SDS011;39629;51.400;5.494;2023-08-24T10:33:30;4.90;;;3.10;;
47896;SDS011;39629;51.400;5.494;2023-08-24T10:38:35;4.22;;;2.40;;
47896;SDS011;39629;51.400;5.494;2023-08-24T10:43:48;5.55;;;2.97;;
47896;SDS011;39629;51.400;5.494;2023-08-24T10:48:57;7.22;;;2.78;;
47896;SDS011;39629;51.400;5.494;2023-08-24T10:54:00;6.00;;;2.83;;
47896;SDS011;39629;51.400;5.494;2023-08-24T10:59:10;4.32;;;2.72;;
47896;SDS011;39629;51.400;5.494;2023-08-24T11:04:15;5.03;;;2.67;;
47896;SDS011;39629;51.400;5.494;2023-08-24T11:14:19;5.18;;;2.83;;
47896;SDS011;39629;51.400;5.494;2023-08-24T11:19:23;4.82;;;2.40;;
47896;SDS011;39629;51.400;5.494;2023-08-24T11:24:25;6.53;;;2.80;;
47896;SDS011;39629;51.400;5.494;2023-08-24T11:29:28;6.72;;;3.50;;
47896;SDS011;39629;51.400;5.494;2023-08-24T11:34:31;6.00;;;2.88;;
47896;SDS011;39629;51.400;5.494;2023-08-24T11:39:33;5.65;;;2.60;;
47896;SDS011;39629;51.400;5.494;2023-08-24T11:44:44;6.88;;;2.58;;
47896;SDS011;39629;51.400;5.494;2023-08-24T11:49:48;7.00;;;3.58;;
47896;SDS011;39629;51.400;5.494;2023-08-24T11:54:50;5.55;;;2.60;;
47896;SDS011;39629;51.400;5.494;2023-08-24T11:59:52;7.80;;;3.03;;
47896;SDS011;39629;51.400;5.494;2023-08-24T12:04:55;6.15;;;2.92;;
47896;SDS011;39629;51.400;5.494;2023-08-24T12:09:59;4.82;;;2.88;;
47896;SDS011;39629;51.400;5.494;2023-08-24T12:15:01;7.78;;;2.47;;
47896;SDS011;39629;51.400;5.494;2023-08-24T12:20:05;4.75;;;2.80;;
47896;SDS011;39629;51.400;5.494;2023-08-24T12:25:08;5.55;;;3.20;;
47896;SDS011;39629;51.400;5.494;2023-08-24T12:30:10;7.25;;;3.15;;
47896;SDS011;39629;51.400;5.494;2023-08-24T12:35:14;7.57;;;3.10;;
47896;SDS011;39629;51.400;5.494;2023-08-24T12:40:16;6.30;;;2.70;;
47896;SDS011;39629;51.400;5.494;2023-08-24T12:45:17;3.38;;;2.15;;
47896;SDS011;39629;51.400;5.494;2023-08-24T12:50:20;5.47;;;2.40;;
47896;SDS011;39629;51.400;5.494;2023-08-24T12:55:22;3.83;;;2.10;;
47896;SDS011;39629;51.400;5.494;2023-08-24T13:00:24;4.85;;;2.20;;
47896;SDS011;39629;51.400;5.494;2023-08-24T13:05:28;7.18;;;2.22;;
47896;SDS011;39629;51.400;5.494;2023-08-24T13:10:30;4.72;;;2.05;;
47896;SDS011;39629;51.400;5.494;2023-08-24T13:15:31;5.13;;;2.33;;
47896;SDS011;39629;51.400;5.494;2023-08-24T13:20:34;3.78;;;2.00;;
47896;SDS011;39629;51.400;5.494;2023-08-24T13:25:35;5.55;;;2.40;;
47896;SDS011;39629;51.400;5.494;2023-08-24T13:30:37;4.13;;;1.80;;
47896;SDS011;39629;51.400;5.494;2023-08-24T13:40:43;3.00;;;1.73;;
47896;SDS011;39629;51.400;5.494;2023-08-24T13:45:44;4.47;;;1.90;;
47896;SDS011;39629;51.400;5.494;2023-08-24T13:50:50;3.65;;;2.00;;
47896;SDS011;39629;51.400;5.494;2023-08-24T13:55:53;4.60;;;1.90;;
47896;SDS011;39629;51.400;5.494;2023-08-24T14:00:55;5.38;;;2.15;;
47896;SDS011;39629;51.400;5.494;2023-08-24T14:05:58;2.83;;;1.85;;
47896;SDS011;39629;51.400;5.494;2023-08-24T14:16:01;5.80;;;1.70;;
47896;SDS011;39629;51.400;5.494;2023-08-24T14:21:05;4.10;;;1.83;;
47896;SDS011;39629;51.400;5.494;2023-08-24T14:26:07;2.63;;;1.55;;
47896;SDS011;39629;51.400;5.494;2023-08-24T14:31:10;4.57;;;1.80;;
47896;SDS011;39629;51.400;5.494;2023-08-24T14:36:13;3.70;;;1.60;;
47896;SDS011;39629;51.400;5.494;2023-08-24T14:41:15;3.65;;;1.60;;
47896;SDS011;39629;51.400;5.494;2023-08-24T14:46:17;3.65;;;1.70;;
47896;SDS011;39629;51.400;5.494;2023-08-24T14:51:20;3.17;;;1.40;;
47896;SDS011;39629;51.400;5.494;2023-08-24T14:56:21;3.17;;;1.40;;
47896;SDS011;39629;51.400;5.494;2023-08-24T15:01:23;3.08;;;1.30;;
47896;SDS011;39629;51.400;5.494;2023-08-24T15:06:26;3.13;;;1.30;;
47896;SDS011;39629;51.400;5.494;2023-08-24T15:11:28;4.97;;;1.30;;
47896;SDS011;39629;51.400;5.494;2023-08-24T15:16:29;2.70;;;1.40;;
47896;SDS011;39629;51.400;5.494;2023-08-24T15:21:32;2.75;;;1.25;;
47896;SDS011;39629;51.400;5.494;2023-08-24T15:26:34;4.45;;;1.25;;
47896;SDS011;39629;51.400;5.494;2023-08-24T15:31:36;2.08;;;1.08;;
47896;SDS011;39629;51.400;5.494;2023-08-24T15:36:38;2.58;;;0.90;;
47896;SDS011;39629;51.400;5.494;2023-08-24T15:41:40;1.67;;;0.90;;
47896;SDS011;39629;51.400;5.494;2023-08-24T15:46:42;4.05;;;1.13;;
47896;SDS011;39629;51.400;5.494;2023-08-24T15:51:45;2.25;;;1.00;;
47896;SDS011;39629;51.400;5.494;2023-08-24T15:56:46;3.95;;;0.98;;
47896;SDS011;39629;51.400;5.494;2023-08-24T16:01:48;2.65;;;1.00;;
47896;SDS011;39629;51.400;5.494;2023-08-24T16:06:52;2.15;;;1.00;;
47896;SDS011;39629;51.400;5.494;2023-08-24T16:11:54;1.95;;;1.00;;
47896;SDS011;39629;51.400;5.494;2023-08-24T16:16:56;2.55;;;1.00;;
47896;SDS011;39629;51.400;5.494;2023-08-24T16:21:58;1.95;;;1.23;;
47896;SDS011;39629;51.400;5.494;2023-08-24T16:27:00;1.80;;;0.90;;
47896;SDS011;39629;51.400;5.494;2023-08-24T16:32:02;1.73;;;0.80;;
47896;SDS011;39629;51.400;5.494;2023-08-24T16:37:05;3.85;;;0.82;;
47896;SDS011;39629;51.400;5.494;2023-08-24T16:42:06;3.53;;;0.88;;
47896;SDS011;39629;51.400;5.494;2023-08-24T16:47:08;1.50;;;0.73;;
47896;SDS011;39629;51.400;5.494;2023-08-24T16:52:11;1.65;;;0.93;;
47896;SDS011;39629;51.400;5.494;2023-08-24T16:57:13;1.83;;;0.70;;
47896;SDS011;39629;51.400;5.494;2023-08-24T17:02:15;7.15;;;3.13;;
47896;SDS011;39629;51.400;5.494;2023-08-24T17:07:18;2.80;;;1.17;;
47896;SDS011;39629;51.400;5.494;2023-08-24T17:12:19;2.78;;;0.80;;
47896;SDS011;39629;51.400;5.494;2023-08-24T17:17:21;2.03;;;0.75;;
47896;SDS011;39629;51.400;5.494;2023-08-24T17:22:23;1.33;;;0.90;;
47896;SDS011;39629;51.400;5.494;2023-08-24T17:27:25;1.33;;;0.70;;
47896;SDS011;39629;51.400;5.494;2023-08-24T17:32:27;1.17;;;0.73;;
47896;SDS011;39629;51.400;5.494;2023-08-24T17:37:30;3.80;;;0.80;;
47896;SDS011;39629;51.400;5.494;2023-08-24T17:42:31;1.53;;;0.70;;
47896;SDS011;39629;51.400;5.494;2023-08-24T17:47:33;2.95;;;0.80;;
47896;SDS011;39629;51.400;5.494;2023-08-24T17:52:36;1.48;;;0.75;;
47896;SDS011;39629;51.400;5.494;2023-08-24T17:57:38;2.35;;;0.60;;
47896;SDS011;39629;51.400;5.494;2023-08-24T18:02:40;1.73;;;0.75;;
47896;SDS011;39629;51.400;5.494;2023-08-24T18:07:43;2.40;;;0.80;;
47896;SDS011;39629;51.400;5.494;2023-08-24T18:12:44;1.50;;;0.80;;
47896;SDS011;39629;51.400;5.494;2023-08-24T18:17:46;1.40;;;0.70;;
47896;SDS011;39629;51.400;5.494;2023-08-24T18:22:49;1.30;;;0.60;;
47896;SDS011;39629;51.400;5.494;2023-08-24T18:27:51;2.93;;;0.83;;
47896;SDS011;39629;51.400;5.494;2023-08-24T18:32:53;2.97;;;0.98;;
47896;SDS011;39629;51.400;5.494;2023-08-24T18:37:56;2.95;;;0.95;;
47896;SDS011;39629;51.400;5.494;2023-08-24T18:42:57;3.17;;;0.80;;
47896;SDS011;39629;51.400;5.494;2023-08-24T18:47:59;2.35;;;0.82;;
47896;SDS011;39629;51.400;5.494;2023-08-24T18:53:02;2.17;;;1.17;;
47896;SDS011;39629;51.400;5.494;2023-08-24T18:58:03;2.10;;;0.88;;
47896;SDS011;39629;51.400;5.494;2023-08-24T19:03:05;2.88;;;1.10;;
47896;SDS011;39629;51.400;5.494;2023-08-24T19:08:08;4.28;;;1.00;;
47896;SDS011;39629;51.400;5.494;2023-08-24T19:13:09;1.63;;;0.87;;
47896;SDS011;39629;51.400;5.494;2023-08-24T19:18:11;6.53;;;1.58;;
47896;SDS011;39629;51.400;5.494;2023-08-24T19:23:14;6.18;;;1.67;;
47896;SDS011;39629;51.400;5.494;2023-08-24T19:28:15;3.07;;;1.10;;
47896;SDS011;39629;51.400;5.494;2023-08-24T19:33:17;4.60;;;1.20;;
47896;SDS011;39629;51.400;5.494;2023-08-24T19:38:20;2.35;;;1.40;;
47896;SDS011;39629;51.400;5.494;2023-08-24T19:43:21;2.97;;;1.20;;
47896;SDS011;39629;51.400;5.494;2023-08-24T19:48:23;4.07;;;1.17;;
47896;SDS011;39629;51.400;5.494;2023-08-24T19:53:26;2.22;;;1.20;;
47896;SDS011;39629;51.400;5.494;2023-08-24T19:58:27;3.10;;;1.20;;
47896;SDS011;39629;51.400;5.494;2023-08-24T20:03:29;2.63;;;1.10;;
47896;SDS011;39629;51.400;5.494;2023-08-24T20:08:32;2.80;;;1.20;;
47896;SDS011;39629;51.400;5.494;2023-08-24T20:13:34;4.10;;;1.33;;
47896;SDS011;39629;51.400;5.494;2023-08-24T20:18:35;3.15;;;1.30;;
47896;SDS011;39629;51.400;5.494;2023-08-24T20:23:39;4.60;;;1.20;;
47896;SDS011;39629;51.400;5.494;2023-08-24T20:28:43;2.78;;;1.40;;
47896;SDS011;39629;51.400;5.494;2023-08-24T20:33:45;1.73;;;1.20;;
47896;SDS011;39629;51.400;5.494;2023-08-24T20:38:48;2.35;;;1.50;;
47896;SDS011;39629;51.400;5.494;2023-08-24T20:43:49;3.00;;;1.30;;
47896;SDS011;39629;51.400;5.494;2023-08-24T20:48:51;2.55;;;1.20;;
47896;SDS011;39629;51.400;5.494;2023-08-24T20:53:54;1.95;;;1.25;;
47896;SDS011;39629;51.400;5.494;2023-08-24T20:58:58;2.80;;;1.15;;
47896;SDS011;39629;51.400;5.494;2023-08-24T21:04:00;3.47;;;1.40;;
47896;SDS011;39629;51.400;5.494;2023-08-24T21:09:03;3.85;;;1.55;;
47896;SDS011;39629;51.400;5.494;2023-08-24T21:14:04;3.90;;;1.55;;
47896;SDS011;39629;51.400;5.494;2023-08-24T21:19:06;3.53;;;1.40;;
47896;SDS011;39629;51.400;5.494;2023-08-24T21:24:09;3.33;;;1.50;;
47896;SDS011;39629;51.400;5.494;2023-08-24T21:29:10;1.98;;;1.20;;
47896;SDS011;39629;51.400;5.494;2023-08-24T21:34:12;2.42;;;1.20;;
47896;SDS011;39629;51.400;5.494;2023-08-24T21:39:15;3.85;;;1.63;;
47896;SDS011;39629;51.400;5.494;2023-08-24T21:44:18;3.17;;;1.58;;
47896;SDS011;39629;51.400;5.494;2023-08-24T21:49:20;4.78;;;2.00;;
47896;SDS011;39629;51.400;5.494;2023-08-24T21:54:23;7.65;;;2.58;;
47896;SDS011;39629;51.400;5.494;2023-08-24T21:59:24;5.97;;;2.58;;
47896;SDS011;39629;51.400;5.494;2023-08-24T22:04:26;5.68;;;2.10;;
47896;SDS011;39629;51.400;5.494;2023-08-24T22:09:29;2.88;;;1.60;;
47896;SDS011;39629;51.400;5.494;2023-08-24T22:14:30;4.15;;;2.05;;
47896;SDS011;39629;51.400;5.494;2023-08-24T22:19:32;6.43;;;2.30;;
47896;SDS011;39629;51.400;5.494;2023-08-24T22:24:35;4.85;;;1.90;;
47896;SDS011;39629;51.400;5.494;2023-08-24T22:29:36;3.13;;;2.05;;
47896;SDS011;39629;51.400;5.494;2023-08-24T22:34:38;3.65;;;2.25;;
47896;SDS011;39629;51.400;5.494;2023-08-24T22:39:41;4.50;;;2.45;;
47896;SDS011;39629;51.400;5.494;2023-08-24T22:44:43;4.82;;;2.55;;
47896;SDS011;39629;51.400;5.494;2023-08-24T22:49:44;4.07;;;2.22;;
47896;SDS011;39629;51.400;5.494;2023-08-24T22:54:47;3.05;;;1.90;;
47896;SDS011;39629;51.400;5.494;2023-08-24T22:59:50;3.85;;;2.13;;
47896;SDS011;39629;51.400;5.494;2023-08-24T23:04:52;3.08;;;1.85;;
47896;SDS011;39629;51.400;5.494;2023-08-24T23:09:55;4.15;;;2.22;;
47896;SDS011;39629;51.400;5.494;2023-08-24T23:14:56;3.17;;;2.00;;
47896;SDS011;39629;51.400;5.494;2023-08-24T23:19:58;5.28;;;2.60;;
47896;SDS011;39629;51.400;5.494;2023-08-24T23:25:05;4.65;;;2.63;;
47896;SDS011;39629;51.400;5.494;2023-08-24T23:30:07;6.90;;;2.67;;
47896;SDS011;39629;51.400;5.494;2023-08-24T23:35:11;2.88;;;2.03;;
47896;SDS011;39629;51.400;5.494;2023-08-24T23:40:14;4.20;;;2.47;;
47896;SDS011;39629;51.400;5.494;2023-08-24T23:45:16;4.55;;;2.75;;
47896;SDS011;39629;51.400;5.494;2023-08-24T23:50:18;6.85;;;2.80;;
47896;SDS011;39629;51.400;5.494;2023-08-24T23:55:21;4.10;;;2.65;;
